sensor_id;sensor_type;location;lat;lon;timestamp;P1;durP1;ratioP1;P2;durP2;ratioP2
42904;SDS011;28550;51.228;4.528;2023-05-28T00:00:54;26.27;;;12.48;;
42904;SDS011;28550;51.228;4.528;2023-05-28T00:03:22;27.65;;;13.48;;
42904;SDS011;28550;51.228;4.528;2023-05-28T00:05:48;36.05;;;13.30;;
42904;SDS011;28550;51.228;4.528;2023-05-28T00:08:14;28.60;;;13.38;;
42904;SDS011;28550;51.228;4.528;2023-05-28T00:10:41;23.90;;;13.88;;
42904;SDS011;28550;51.228;4.528;2023-05-28T00:13:06;25.67;;;12.43;;
42904;SDS011;28550;51.228;4.528;2023-05-28T00:15:32;25.08;;;12.63;;
42904;SDS011;28550;51.228;4.528;2023-05-28T00:17:58;30.13;;;15.10;;
42904;SDS011;28550;51.228;4.528;2023-05-28T00:20:24;26.77;;;14.32;;
42904;SDS011;28550;51.228;4.528;2023-05-28T00:22:50;32.78;;;14.95;;
42904;SDS011;28550;51.228;4.528;2023-05-28T00:25:16;27.25;;;13.38;;
42904;SDS011;28550;51.228;4.528;2023-05-28T00:27:42;33.72;;;13.73;;
42904;SDS011;28550;51.228;4.528;2023-05-28T00:30:07;35.55;;;13.95;;
42904;SDS011;28550;51.228;4.528;2023-05-28T00:32:33;36.58;;;14.57;;
42904;SDS011;28550;51.228;4.528;2023-05-28T00:34:59;31.83;;;14.23;;
42904;SDS011;28550;51.228;4.528;2023-05-28T00:37:25;29.58;;;15.13;;
42904;SDS011;28550;51.228;4.528;2023-05-28T00:39:51;30.48;;;13.65;;
42904;SDS011;28550;51.228;4.528;2023-05-28T00:42:16;30.92;;;13.95;;
42904;SDS011;28550;51.228;4.528;2023-05-28T00:44:42;27.60;;;14.02;;
42904;SDS011;28550;51.228;4.528;2023-05-28T00:47:09;28.77;;;15.13;;
42904;SDS011;28550;51.228;4.528;2023-05-28T00:49:35;35.13;;;16.15;;
42904;SDS011;28550;51.228;4.528;2023-05-28T00:52:02;39.03;;;15.38;;
42904;SDS011;28550;51.228;4.528;2023-05-28T00:54:30;34.35;;;15.95;;
42904;SDS011;28550;51.228;4.528;2023-05-28T00:56:56;28.17;;;15.40;;
42904;SDS011;28550;51.228;4.528;2023-05-28T00:59:23;32.97;;;16.80;;
42904;SDS011;28550;51.228;4.528;2023-05-28T01:01:51;34.97;;;16.33;;
42904;SDS011;28550;51.228;4.528;2023-05-28T01:04:17;32.45;;;15.30;;
42904;SDS011;28550;51.228;4.528;2023-05-28T01:06:43;30.65;;;15.18;;
42904;SDS011;28550;51.228;4.528;2023-05-28T01:09:10;30.40;;;16.05;;
42904;SDS011;28550;51.228;4.528;2023-05-28T01:11:37;34.08;;;15.40;;
42904;SDS011;28550;51.228;4.528;2023-05-28T01:14:06;31.23;;;15.75;;
42904;SDS011;28550;51.228;4.528;2023-05-28T01:16:33;35.28;;;14.65;;
42904;SDS011;28550;51.228;4.528;2023-05-28T01:19:00;39.03;;;16.52;;
42904;SDS011;28550;51.228;4.528;2023-05-28T01:21:34;40.88;;;16.45;;
42904;SDS011;28550;51.228;4.528;2023-05-28T01:24:02;36.92;;;15.65;;
42904;SDS011;28550;51.228;4.528;2023-05-28T01:26:29;34.55;;;16.65;;
42904;SDS011;28550;51.228;4.528;2023-05-28T01:28:55;30.95;;;15.50;;
42904;SDS011;28550;51.228;4.528;2023-05-28T01:31:21;38.45;;;16.30;;
42904;SDS011;28550;51.228;4.528;2023-05-28T01:33:47;37.25;;;16.95;;
42904;SDS011;28550;51.228;4.528;2023-05-28T01:36:20;41.65;;;17.25;;
42904;SDS011;28550;51.228;4.528;2023-05-28T01:38:52;37.30;;;17.88;;
42904;SDS011;28550;51.228;4.528;2023-05-28T01:41:24;41.65;;;17.55;;
42904;SDS011;28550;51.228;4.528;2023-05-28T01:43:51;42.60;;;17.50;;
42904;SDS011;28550;51.228;4.528;2023-05-28T01:46:18;39.22;;;16.77;;
42904;SDS011;28550;51.228;4.528;2023-05-28T01:48:46;40.05;;;18.63;;
42904;SDS011;28550;51.228;4.528;2023-05-28T01:51:15;40.00;;;17.05;;
42904;SDS011;28550;51.228;4.528;2023-05-28T01:53:41;38.53;;;17.48;;
42904;SDS011;28550;51.228;4.528;2023-05-28T01:56:07;43.60;;;19.52;;
42904;SDS011;28550;51.228;4.528;2023-05-28T01:58:33;41.17;;;17.83;;
42904;SDS011;28550;51.228;4.528;2023-05-28T02:03:49;38.85;;;18.08;;
42904;SDS011;28550;51.228;4.528;2023-05-28T02:06:15;49.88;;;19.77;;
42904;SDS011;28550;51.228;4.528;2023-05-28T02:08:41;38.95;;;18.30;;
42904;SDS011;28550;51.228;4.528;2023-05-28T02:11:06;41.08;;;19.02;;
42904;SDS011;28550;51.228;4.528;2023-05-28T02:13:32;38.67;;;18.50;;
42904;SDS011;28550;51.228;4.528;2023-05-28T02:15:58;41.20;;;17.08;;
42904;SDS011;28550;51.228;4.528;2023-05-28T02:18:24;43.08;;;17.58;;
42904;SDS011;28550;51.228;4.528;2023-05-28T02:20:49;38.60;;;18.67;;
42904;SDS011;28550;51.228;4.528;2023-05-28T02:23:15;41.03;;;18.00;;
42904;SDS011;28550;51.228;4.528;2023-05-28T02:25:41;37.28;;;18.88;;
42904;SDS011;28550;51.228;4.528;2023-05-28T02:28:06;40.63;;;17.40;;
42904;SDS011;28550;51.228;4.528;2023-05-28T02:30:32;36.67;;;17.88;;
42904;SDS011;28550;51.228;4.528;2023-05-28T02:32:58;52.20;;;20.27;;
42904;SDS011;28550;51.228;4.528;2023-05-28T02:35:23;39.45;;;21.05;;
42904;SDS011;28550;51.228;4.528;2023-05-28T02:37:49;39.25;;;19.35;;
42904;SDS011;28550;51.228;4.528;2023-05-28T02:40:16;40.53;;;17.42;;
42904;SDS011;28550;51.228;4.528;2023-05-28T02:42:42;42.85;;;20.33;;
42904;SDS011;28550;51.228;4.528;2023-05-28T02:45:08;43.28;;;18.58;;
42904;SDS011;28550;51.228;4.528;2023-05-28T02:47:33;41.33;;;18.45;;
42904;SDS011;28550;51.228;4.528;2023-05-28T02:53:06;44.08;;;19.17;;
42904;SDS011;28550;51.228;4.528;2023-05-28T02:55:32;50.70;;;18.70;;
42904;SDS011;28550;51.228;4.528;2023-05-28T02:57:57;46.17;;;19.88;;
42904;SDS011;28550;51.228;4.528;2023-05-28T03:00:23;44.55;;;18.73;;
42904;SDS011;28550;51.228;4.528;2023-05-28T03:02:49;39.67;;;19.20;;
42904;SDS011;28550;51.228;4.528;2023-05-28T03:08:22;38.95;;;18.45;;
42904;SDS011;28550;51.228;4.528;2023-05-28T03:10:48;39.08;;;18.83;;
42904;SDS011;28550;51.228;4.528;2023-05-28T03:13:14;39.80;;;19.38;;
42904;SDS011;28550;51.228;4.528;2023-05-28T03:15:39;41.65;;;19.08;;
42904;SDS011;28550;51.228;4.528;2023-05-28T03:18:05;44.90;;;19.52;;
42904;SDS011;28550;51.228;4.528;2023-05-28T03:20:31;43.63;;;19.98;;
42904;SDS011;28550;51.228;4.528;2023-05-28T03:22:57;44.70;;;20.38;;
42904;SDS011;28550;51.228;4.528;2023-05-28T03:25:26;41.05;;;20.15;;
42904;SDS011;28550;51.228;4.528;2023-05-28T03:27:53;41.30;;;19.13;;
42904;SDS011;28550;51.228;4.528;2023-05-28T03:30:19;39.17;;;18.02;;
42904;SDS011;28550;51.228;4.528;2023-05-28T03:32:46;43.75;;;19.02;;
42904;SDS011;28550;51.228;4.528;2023-05-28T03:35:13;39.35;;;18.80;;
42904;SDS011;28550;51.228;4.528;2023-05-28T03:37:39;39.97;;;19.58;;
42904;SDS011;28550;51.228;4.528;2023-05-28T03:40:05;47.08;;;20.23;;
42904;SDS011;28550;51.228;4.528;2023-05-28T03:42:32;40.70;;;18.42;;
42904;SDS011;28550;51.228;4.528;2023-05-28T03:44:58;39.20;;;19.90;;
42904;SDS011;28550;51.228;4.528;2023-05-28T03:47:23;36.95;;;18.70;;
42904;SDS011;28550;51.228;4.528;2023-05-28T03:49:49;39.35;;;18.05;;
42904;SDS011;28550;51.228;4.528;2023-05-28T03:52:15;43.65;;;19.15;;
42904;SDS011;28550;51.228;4.528;2023-05-28T03:54:41;34.70;;;18.90;;
42904;SDS011;28550;51.228;4.528;2023-05-28T03:57:07;48.67;;;20.23;;
42904;SDS011;28550;51.228;4.528;2023-05-28T03:59:32;46.65;;;18.45;;
42904;SDS011;28550;51.228;4.528;2023-05-28T04:01:58;41.90;;;19.60;;
42904;SDS011;28550;51.228;4.528;2023-05-28T04:04:24;43.25;;;19.02;;
42904;SDS011;28550;51.228;4.528;2023-05-28T04:06:49;38.58;;;19.65;;
42904;SDS011;28550;51.228;4.528;2023-05-28T04:09:15;42.65;;;20.13;;
42904;SDS011;28550;51.228;4.528;2023-05-28T04:11:41;45.72;;;19.70;;
42904;SDS011;28550;51.228;4.528;2023-05-28T04:14:07;32.50;;;17.40;;
42904;SDS011;28550;51.228;4.528;2023-05-28T04:16:34;36.42;;;19.23;;
42904;SDS011;28550;51.228;4.528;2023-05-28T04:19:00;46.45;;;20.30;;
42904;SDS011;28550;51.228;4.528;2023-05-28T04:21:26;42.50;;;17.75;;
42904;SDS011;28550;51.228;4.528;2023-05-28T04:23:54;42.83;;;18.95;;
42904;SDS011;28550;51.228;4.528;2023-05-28T04:26:19;40.58;;;18.45;;
42904;SDS011;28550;51.228;4.528;2023-05-28T04:28:45;40.10;;;19.50;;
42904;SDS011;28550;51.228;4.528;2023-05-28T04:31:14;40.00;;;18.27;;
42904;SDS011;28550;51.228;4.528;2023-05-28T04:33:39;36.78;;;18.40;;
42904;SDS011;28550;51.228;4.528;2023-05-28T04:36:05;39.78;;;18.15;;
42904;SDS011;28550;51.228;4.528;2023-05-28T04:38:40;33.75;;;17.00;;
42904;SDS011;28550;51.228;4.528;2023-05-28T04:41:07;40.13;;;17.30;;
42904;SDS011;28550;51.228;4.528;2023-05-28T04:43:33;37.50;;;18.33;;
42904;SDS011;28550;51.228;4.528;2023-05-28T04:46:01;36.42;;;17.02;;
42904;SDS011;28550;51.228;4.528;2023-05-28T04:48:28;36.00;;;18.08;;
42904;SDS011;28550;51.228;4.528;2023-05-28T04:50:59;34.88;;;15.88;;
42904;SDS011;28550;51.228;4.528;2023-05-28T04:53:25;32.95;;;16.60;;
42904;SDS011;28550;51.228;4.528;2023-05-28T04:55:51;33.67;;;16.75;;
42904;SDS011;28550;51.228;4.528;2023-05-28T04:58:17;36.60;;;17.15;;
42904;SDS011;28550;51.228;4.528;2023-05-28T05:00:45;38.80;;;18.35;;
42904;SDS011;28550;51.228;4.528;2023-05-28T05:03:17;35.72;;;17.42;;
42904;SDS011;28550;51.228;4.528;2023-05-28T05:05:42;36.03;;;15.88;;
42904;SDS011;28550;51.228;4.528;2023-05-28T05:08:08;36.33;;;16.65;;
42904;SDS011;28550;51.228;4.528;2023-05-28T05:10:36;32.35;;;16.40;;
42904;SDS011;28550;51.228;4.528;2023-05-28T05:13:02;33.55;;;15.98;;
42904;SDS011;28550;51.228;4.528;2023-05-28T05:15:28;39.05;;;15.55;;
42904;SDS011;28550;51.228;4.528;2023-05-28T05:18:01;30.02;;;15.40;;
42904;SDS011;28550;51.228;4.528;2023-05-28T05:20:27;34.25;;;15.68;;
42904;SDS011;28550;51.228;4.528;2023-05-28T05:22:53;30.42;;;12.98;;
42904;SDS011;28550;51.228;4.528;2023-05-28T05:25:19;27.98;;;15.23;;
42904;SDS011;28550;51.228;4.528;2023-05-28T05:27:47;29.42;;;14.50;;
42904;SDS011;28550;51.228;4.528;2023-05-28T05:30:16;26.95;;;14.43;;
42904;SDS011;28550;51.228;4.528;2023-05-28T05:32:42;34.85;;;14.68;;
42904;SDS011;28550;51.228;4.528;2023-05-28T05:35:08;38.95;;;15.48;;
42904;SDS011;28550;51.228;4.528;2023-05-28T05:37:37;29.42;;;13.82;;
42904;SDS011;28550;51.228;4.528;2023-05-28T05:40:02;29.50;;;14.75;;
42904;SDS011;28550;51.228;4.528;2023-05-28T05:42:30;29.15;;;13.27;;
42904;SDS011;28550;51.228;4.528;2023-05-28T05:44:56;29.48;;;14.23;;
42904;SDS011;28550;51.228;4.528;2023-05-28T05:47:26;32.72;;;13.32;;
42904;SDS011;28550;51.228;4.528;2023-05-28T05:49:52;21.58;;;12.57;;
42904;SDS011;28550;51.228;4.528;2023-05-28T05:52:17;26.88;;;12.98;;
42904;SDS011;28550;51.228;4.528;2023-05-28T05:54:44;31.65;;;13.40;;
42904;SDS011;28550;51.228;4.528;2023-05-28T05:57:10;28.33;;;12.82;;
42904;SDS011;28550;51.228;4.528;2023-05-28T05:59:36;29.23;;;13.25;;
42904;SDS011;28550;51.228;4.528;2023-05-28T06:02:01;27.38;;;13.05;;
42904;SDS011;28550;51.228;4.528;2023-05-28T06:04:27;22.70;;;12.45;;
42904;SDS011;28550;51.228;4.528;2023-05-28T06:06:57;22.45;;;13.57;;
42904;SDS011;28550;51.228;4.528;2023-05-28T06:09:23;27.23;;;12.63;;
42904;SDS011;28550;51.228;4.528;2023-05-28T06:11:49;26.42;;;13.43;;
42904;SDS011;28550;51.228;4.528;2023-05-28T06:14:19;26.77;;;13.43;;
42904;SDS011;28550;51.228;4.528;2023-05-28T06:17:30;31.65;;;12.63;;
42904;SDS011;28550;51.228;4.528;2023-05-28T06:19:59;18.83;;;11.82;;
42904;SDS011;28550;51.228;4.528;2023-05-28T06:22:44;22.05;;;11.13;;
42904;SDS011;28550;51.228;4.528;2023-05-28T06:25:10;25.33;;;11.80;;
42904;SDS011;28550;51.228;4.528;2023-05-28T06:27:36;21.58;;;11.95;;
42904;SDS011;28550;51.228;4.528;2023-05-28T06:30:03;23.00;;;12.00;;
42904;SDS011;28550;51.228;4.528;2023-05-28T06:32:31;20.17;;;11.05;;
42904;SDS011;28550;51.228;4.528;2023-05-28T06:34:56;17.67;;;10.80;;
42904;SDS011;28550;51.228;4.528;2023-05-28T06:37:22;19.88;;;10.00;;
42904;SDS011;28550;51.228;4.528;2023-05-28T06:39:48;20.40;;;10.60;;
42904;SDS011;28550;51.228;4.528;2023-05-28T06:42:14;27.98;;;11.18;;
42904;SDS011;28550;51.228;4.528;2023-05-28T06:44:39;26.55;;;10.32;;
42904;SDS011;28550;51.228;4.528;2023-05-28T06:47:05;22.08;;;10.55;;
42904;SDS011;28550;51.228;4.528;2023-05-28T06:49:31;24.15;;;10.95;;
42904;SDS011;28550;51.228;4.528;2023-05-28T06:51:57;21.23;;;11.07;;
42904;SDS011;28550;51.228;4.528;2023-05-28T06:54:23;23.70;;;10.15;;
42904;SDS011;28550;51.228;4.528;2023-05-28T06:56:49;17.95;;;9.60;;
42904;SDS011;28550;51.228;4.528;2023-05-28T06:59:15;20.90;;;9.52;;
42904;SDS011;28550;51.228;4.528;2023-05-28T07:01:40;16.52;;;9.35;;
42904;SDS011;28550;51.228;4.528;2023-05-28T07:04:06;16.83;;;10.10;;
42904;SDS011;28550;51.228;4.528;2023-05-28T07:06:32;15.68;;;9.15;;
42904;SDS011;28550;51.228;4.528;2023-05-28T07:08:59;18.75;;;10.07;;
42904;SDS011;28550;51.228;4.528;2023-05-28T07:11:25;15.32;;;9.55;;
42904;SDS011;28550;51.228;4.528;2023-05-28T07:13:51;22.88;;;9.10;;
42904;SDS011;28550;51.228;4.528;2023-05-28T07:16:19;16.15;;;8.85;;
42904;SDS011;28550;51.228;4.528;2023-05-28T07:18:46;15.20;;;9.38;;
42904;SDS011;28550;51.228;4.528;2023-05-28T07:21:12;20.30;;;8.48;;
42904;SDS011;28550;51.228;4.528;2023-05-28T07:23:41;14.68;;;7.90;;
42904;SDS011;28550;51.228;4.528;2023-05-28T07:26:07;18.58;;;8.52;;
42904;SDS011;28550;51.228;4.528;2023-05-28T07:28:33;16.55;;;8.30;;
42904;SDS011;28550;51.228;4.528;2023-05-28T07:30:58;17.38;;;6.90;;
42904;SDS011;28550;51.228;4.528;2023-05-28T07:33:24;12.68;;;6.75;;
42904;SDS011;28550;51.228;4.528;2023-05-28T07:35:50;14.50;;;7.35;;
42904;SDS011;28550;51.228;4.528;2023-05-28T07:38:15;13.68;;;7.28;;
42904;SDS011;28550;51.228;4.528;2023-05-28T07:40:42;10.98;;;6.60;;
42904;SDS011;28550;51.228;4.528;2023-05-28T07:43:08;13.73;;;6.95;;
42904;SDS011;28550;51.228;4.528;2023-05-28T07:45:34;14.48;;;7.00;;
42904;SDS011;28550;51.228;4.528;2023-05-28T07:48:00;12.73;;;6.82;;
42904;SDS011;28550;51.228;4.528;2023-05-28T07:50:26;11.38;;;6.80;;
42904;SDS011;28550;51.228;4.528;2023-05-28T07:52:53;13.38;;;6.60;;
42904;SDS011;28550;51.228;4.528;2023-05-28T07:55:19;16.10;;;7.00;;
42904;SDS011;28550;51.228;4.528;2023-05-28T07:57:45;15.27;;;7.10;;
42904;SDS011;28550;51.228;4.528;2023-05-28T08:00:11;13.40;;;7.63;;
42904;SDS011;28550;51.228;4.528;2023-05-28T08:02:41;16.75;;;7.30;;
42904;SDS011;28550;51.228;4.528;2023-05-28T08:05:07;14.38;;;6.85;;
42904;SDS011;28550;51.228;4.528;2023-05-28T08:07:34;12.80;;;5.57;;
42904;SDS011;28550;51.228;4.528;2023-05-28T08:10:00;26.15;;;6.53;;
42904;SDS011;28550;51.228;4.528;2023-05-28T08:12:26;8.23;;;4.93;;
42904;SDS011;28550;51.228;4.528;2023-05-28T08:14:52;14.20;;;5.85;;
42904;SDS011;28550;51.228;4.528;2023-05-28T08:17:20;12.30;;;6.07;;
42904;SDS011;28550;51.228;4.528;2023-05-28T08:19:47;14.77;;;6.65;;
42904;SDS011;28550;51.228;4.528;2023-05-28T08:22:13;10.70;;;5.78;;
42904;SDS011;28550;51.228;4.528;2023-05-28T08:24:40;12.50;;;5.97;;
42904;SDS011;28550;51.228;4.528;2023-05-28T08:27:06;16.27;;;5.65;;
42904;SDS011;28550;51.228;4.528;2023-05-28T08:29:33;11.95;;;5.80;;
42904;SDS011;28550;51.228;4.528;2023-05-28T08:32:00;10.02;;;6.00;;
42904;SDS011;28550;51.228;4.528;2023-05-28T08:34:26;11.85;;;5.88;;
42904;SDS011;28550;51.228;4.528;2023-05-28T08:36:52;11.80;;;5.88;;
42904;SDS011;28550;51.228;4.528;2023-05-28T08:39:19;11.77;;;5.47;;
42904;SDS011;28550;51.228;4.528;2023-05-28T08:41:49;10.30;;;5.53;;
42904;SDS011;28550;51.228;4.528;2023-05-28T08:44:15;13.52;;;6.00;;
42904;SDS011;28550;51.228;4.528;2023-05-28T08:46:40;12.00;;;6.60;;
42904;SDS011;28550;51.228;4.528;2023-05-28T08:49:07;13.30;;;6.10;;
42904;SDS011;28550;51.228;4.528;2023-05-28T08:51:35;11.65;;;6.70;;
42904;SDS011;28550;51.228;4.528;2023-05-28T08:54:05;10.88;;;6.05;;
42904;SDS011;28550;51.228;4.528;2023-05-28T08:56:33;12.00;;;6.10;;
42904;SDS011;28550;51.228;4.528;2023-05-28T08:59:15;12.13;;;5.93;;
42904;SDS011;28550;51.228;4.528;2023-05-28T09:01:41;8.70;;;4.50;;
42904;SDS011;28550;51.228;4.528;2023-05-28T09:04:07;14.63;;;6.22;;
42904;SDS011;28550;51.228;4.528;2023-05-28T09:06:35;10.02;;;5.68;;
42904;SDS011;28550;51.228;4.528;2023-05-28T09:09:05;9.27;;;5.18;;
42904;SDS011;28550;51.228;4.528;2023-05-28T09:11:32;9.65;;;5.28;;
42904;SDS011;28550;51.228;4.528;2023-05-28T09:13:59;10.35;;;4.47;;
42904;SDS011;28550;51.228;4.528;2023-05-28T09:16:34;12.23;;;5.40;;
42904;SDS011;28550;51.228;4.528;2023-05-28T09:19:03;10.38;;;4.45;;
42904;SDS011;28550;51.228;4.528;2023-05-28T09:21:29;16.33;;;5.85;;
42904;SDS011;28550;51.228;4.528;2023-05-28T09:23:57;7.70;;;4.60;;
42904;SDS011;28550;51.228;4.528;2023-05-28T09:26:28;10.98;;;5.22;;
42904;SDS011;28550;51.228;4.528;2023-05-28T09:28:58;11.10;;;4.68;;
42904;SDS011;28550;51.228;4.528;2023-05-28T09:31:30;12.50;;;5.13;;
42904;SDS011;28550;51.228;4.528;2023-05-28T09:33:58;7.93;;;4.07;;
42904;SDS011;28550;51.228;4.528;2023-05-28T09:36:28;8.30;;;4.60;;
42904;SDS011;28550;51.228;4.528;2023-05-28T09:38:57;7.28;;;4.05;;
42904;SDS011;28550;51.228;4.528;2023-05-28T09:41:24;15.43;;;4.88;;
42904;SDS011;28550;51.228;4.528;2023-05-28T09:43:57;9.85;;;4.88;;
42904;SDS011;28550;51.228;4.528;2023-05-28T09:46:29;10.00;;;4.70;;
42904;SDS011;28550;51.228;4.528;2023-05-28T09:48:59;10.93;;;4.80;;
42904;SDS011;28550;51.228;4.528;2023-05-28T09:51:26;8.43;;;4.72;;
42904;SDS011;28550;51.228;4.528;2023-05-28T09:54:00;8.50;;;4.55;;
42904;SDS011;28550;51.228;4.528;2023-05-28T09:56:29;7.93;;;4.30;;
42904;SDS011;28550;51.228;4.528;2023-05-28T09:58:56;9.63;;;4.28;;
42904;SDS011;28550;51.228;4.528;2023-05-28T10:01:24;10.27;;;4.95;;
42904;SDS011;28550;51.228;4.528;2023-05-28T10:04:07;8.48;;;4.43;;
42904;SDS011;28550;51.228;4.528;2023-05-28T10:06:34;11.77;;;4.10;;
42904;SDS011;28550;51.228;4.528;2023-05-28T10:09:04;8.45;;;4.80;;
42904;SDS011;28550;51.228;4.528;2023-05-28T10:11:34;6.43;;;3.90;;
42904;SDS011;28550;51.228;4.528;2023-05-28T10:14:05;8.75;;;4.05;;
42904;SDS011;28550;51.228;4.528;2023-05-28T10:16:33;8.45;;;4.05;;
42904;SDS011;28550;51.228;4.528;2023-05-28T10:18:59;7.50;;;4.43;;
42904;SDS011;28550;51.228;4.528;2023-05-28T10:21:26;7.45;;;4.35;;
42904;SDS011;28550;51.228;4.528;2023-05-28T10:23:53;9.98;;;4.80;;
42904;SDS011;28550;51.228;4.528;2023-05-28T10:26:19;11.32;;;4.00;;
42904;SDS011;28550;51.228;4.528;2023-05-28T10:28:52;10.18;;;4.78;;
42904;SDS011;28550;51.228;4.528;2023-05-28T10:31:21;9.13;;;4.18;;
42904;SDS011;28550;51.228;4.528;2023-05-28T10:36:17;8.27;;;3.85;;
42904;SDS011;28550;51.228;4.528;2023-05-28T10:41:23;9.88;;;4.45;;
42904;SDS011;28550;51.228;4.528;2023-05-28T10:43:51;9.57;;;4.65;;
42904;SDS011;28550;51.228;4.528;2023-05-28T10:51:45;6.95;;;4.00;;
42904;SDS011;28550;51.228;4.528;2023-05-28T10:54:57;6.18;;;3.72;;
42904;SDS011;28550;51.228;4.528;2023-05-28T10:57:38;10.65;;;4.90;;
42904;SDS011;28550;51.228;4.528;2023-05-28T11:00:06;6.75;;;4.70;;
42904;SDS011;28550;51.228;4.528;2023-05-28T11:02:38;9.75;;;4.55;;
42904;SDS011;28550;51.228;4.528;2023-05-28T11:05:06;8.25;;;5.05;;
42904;SDS011;28550;51.228;4.528;2023-05-28T11:07:33;10.30;;;4.35;;
42904;SDS011;28550;51.228;4.528;2023-05-28T11:10:03;7.22;;;4.45;;
42904;SDS011;28550;51.228;4.528;2023-05-28T11:12:40;7.95;;;4.65;;
42904;SDS011;28550;51.228;4.528;2023-05-28T11:15:07;7.60;;;4.22;;
42904;SDS011;28550;51.228;4.528;2023-05-28T11:17:37;13.23;;;4.68;;
42904;SDS011;28550;51.228;4.528;2023-05-28T11:20:04;6.57;;;4.00;;
42904;SDS011;28550;51.228;4.528;2023-05-28T11:22:40;6.05;;;3.80;;
42904;SDS011;28550;51.228;4.528;2023-05-28T11:25:14;7.15;;;4.70;;
42904;SDS011;28550;51.228;4.528;2023-05-28T11:27:43;10.73;;;4.75;;
42904;SDS011;28550;51.228;4.528;2023-05-28T11:30:17;8.93;;;4.32;;
42904;SDS011;28550;51.228;4.528;2023-05-28T11:32:47;7.20;;;4.82;;
42904;SDS011;28550;51.228;4.528;2023-05-28T11:41:48;9.45;;;4.88;;
42904;SDS011;28550;51.228;4.528;2023-05-28T11:44:19;10.25;;;4.80;;
42904;SDS011;28550;51.228;4.528;2023-05-28T11:47:32;7.55;;;4.38;;
42904;SDS011;28550;51.228;4.528;2023-05-28T11:50:10;8.32;;;4.32;;
42904;SDS011;28550;51.228;4.528;2023-05-28T11:52:39;10.52;;;4.32;;
42904;SDS011;28550;51.228;4.528;2023-05-28T11:55:16;7.22;;;4.00;;
42904;SDS011;28550;51.228;4.528;2023-05-28T11:57:49;9.40;;;4.22;;
42904;SDS011;28550;51.228;4.528;2023-05-28T12:00:18;8.40;;;4.28;;
42904;SDS011;28550;51.228;4.528;2023-05-28T12:02:46;8.48;;;4.28;;
42904;SDS011;28550;51.228;4.528;2023-05-28T12:05:13;10.32;;;4.88;;
42904;SDS011;28550;51.228;4.528;2023-05-28T12:07:44;8.10;;;4.65;;
42904;SDS011;28550;51.228;4.528;2023-05-28T12:10:15;7.35;;;4.68;;
42904;SDS011;28550;51.228;4.528;2023-05-28T12:12:59;8.23;;;4.75;;
42904;SDS011;28550;51.228;4.528;2023-05-28T12:15:28;8.43;;;4.22;;
42904;SDS011;28550;51.228;4.528;2023-05-28T12:17:58;9.85;;;4.63;;
42904;SDS011;28550;51.228;4.528;2023-05-28T12:20:30;11.07;;;4.88;;
42904;SDS011;28550;51.228;4.528;2023-05-28T12:23:07;7.13;;;4.60;;
42904;SDS011;28550;51.228;4.528;2023-05-28T12:28:09;9.70;;;4.30;;
42904;SDS011;28550;51.228;4.528;2023-05-28T12:30:37;11.45;;;5.13;;
42904;SDS011;28550;51.228;4.528;2023-05-28T12:33:04;7.32;;;4.15;;
42904;SDS011;28550;51.228;4.528;2023-05-28T12:35:30;12.75;;;5.18;;
42904;SDS011;28550;51.228;4.528;2023-05-28T12:37:56;8.18;;;4.95;;
42904;SDS011;28550;51.228;4.528;2023-05-28T12:40:22;10.40;;;4.63;;
42904;SDS011;28550;51.228;4.528;2023-05-28T12:42:48;8.80;;;4.63;;
42904;SDS011;28550;51.228;4.528;2023-05-28T12:45:14;8.18;;;3.85;;
42904;SDS011;28550;51.228;4.528;2023-05-28T12:47:40;8.77;;;4.70;;
42904;SDS011;28550;51.228;4.528;2023-05-28T12:50:06;7.20;;;4.80;;
42904;SDS011;28550;51.228;4.528;2023-05-28T12:52:32;10.75;;;4.50;;
42904;SDS011;28550;51.228;4.528;2023-05-28T12:55:00;9.82;;;4.60;;
42904;SDS011;28550;51.228;4.528;2023-05-28T12:57:26;7.18;;;4.97;;
42904;SDS011;28550;51.228;4.528;2023-05-28T12:59:52;10.85;;;4.63;;
42904;SDS011;28550;51.228;4.528;2023-05-28T13:02:18;9.57;;;4.32;;
42904;SDS011;28550;51.228;4.528;2023-05-28T13:04:44;9.70;;;4.97;;
42904;SDS011;28550;51.228;4.528;2023-05-28T13:07:09;8.50;;;4.43;;
42904;SDS011;28550;51.228;4.528;2023-05-28T13:09:37;9.25;;;4.60;;
42904;SDS011;28550;51.228;4.528;2023-05-28T13:12:03;14.35;;;5.03;;
42904;SDS011;28550;51.228;4.528;2023-05-28T13:14:29;9.15;;;4.68;;
42904;SDS011;28550;51.228;4.528;2023-05-28T13:16:56;12.07;;;5.43;;
42904;SDS011;28550;51.228;4.528;2023-05-28T13:19:22;11.30;;;4.75;;
42904;SDS011;28550;51.228;4.528;2023-05-28T13:21:49;8.50;;;4.78;;
42904;SDS011;28550;51.228;4.528;2023-05-28T13:24:14;8.40;;;4.68;;
42904;SDS011;28550;51.228;4.528;2023-05-28T13:26:40;8.20;;;3.92;;
42904;SDS011;28550;51.228;4.528;2023-05-28T13:29:06;5.93;;;4.10;;
42904;SDS011;28550;51.228;4.528;2023-05-28T13:31:32;8.10;;;5.20;;
42904;SDS011;28550;51.228;4.528;2023-05-28T13:33:59;8.15;;;5.07;;
42904;SDS011;28550;51.228;4.528;2023-05-28T13:36:25;8.93;;;4.70;;
42904;SDS011;28550;51.228;4.528;2023-05-28T13:38:53;7.93;;;4.85;;
42904;SDS011;28550;51.228;4.528;2023-05-28T13:41:20;8.40;;;4.55;;
42904;SDS011;28550;51.228;4.528;2023-05-28T13:43:52;9.15;;;5.05;;
42904;SDS011;28550;51.228;4.528;2023-05-28T13:46:21;9.95;;;4.78;;
42904;SDS011;28550;51.228;4.528;2023-05-28T13:48:50;8.98;;;5.05;;
42904;SDS011;28550;51.228;4.528;2023-05-28T13:51:16;7.55;;;4.97;;
42904;SDS011;28550;51.228;4.528;2023-05-28T13:53:43;9.93;;;4.80;;
42904;SDS011;28550;51.228;4.528;2023-05-28T13:56:12;9.57;;;4.53;;
42904;SDS011;28550;51.228;4.528;2023-05-28T13:58:39;9.48;;;4.32;;
42904;SDS011;28550;51.228;4.528;2023-05-28T14:01:05;8.02;;;4.25;;
42904;SDS011;28550;51.228;4.528;2023-05-28T14:03:33;8.13;;;4.18;;
42904;SDS011;28550;51.228;4.528;2023-05-28T14:05:58;7.30;;;4.22;;
42904;SDS011;28550;51.228;4.528;2023-05-28T14:08:25;6.85;;;4.78;;
42904;SDS011;28550;51.228;4.528;2023-05-28T14:10:51;9.77;;;4.90;;
42904;SDS011;28550;51.228;4.528;2023-05-28T14:13:16;7.35;;;4.28;;
42904;SDS011;28550;51.228;4.528;2023-05-28T14:15:42;7.70;;;4.10;;
42904;SDS011;28550;51.228;4.528;2023-05-28T14:18:08;10.40;;;5.15;;
42904;SDS011;28550;51.228;4.528;2023-05-28T14:20:35;7.88;;;4.47;;
42904;SDS011;28550;51.228;4.528;2023-05-28T14:23:02;8.27;;;5.20;;
42904;SDS011;28550;51.228;4.528;2023-05-28T14:25:29;9.13;;;4.78;;
42904;SDS011;28550;51.228;4.528;2023-05-28T14:27:55;11.93;;;5.35;;
42904;SDS011;28550;51.228;4.528;2023-05-28T14:30:23;11.98;;;4.78;;
42904;SDS011;28550;51.228;4.528;2023-05-28T14:32:50;11.50;;;5.22;;
42904;SDS011;28550;51.228;4.528;2023-05-28T14:35:23;7.85;;;4.57;;
42904;SDS011;28550;51.228;4.528;2023-05-28T14:37:51;9.00;;;5.28;;
42904;SDS011;28550;51.228;4.528;2023-05-28T14:42:47;12.05;;;5.28;;
42904;SDS011;28550;51.228;4.528;2023-05-28T14:45:12;9.02;;;4.70;;
42904;SDS011;28550;51.228;4.528;2023-05-28T14:47:48;8.48;;;4.75;;
42904;SDS011;28550;51.228;4.528;2023-05-28T14:50:13;11.32;;;5.22;;
42904;SDS011;28550;51.228;4.528;2023-05-28T14:52:39;13.88;;;5.38;;
42904;SDS011;28550;51.228;4.528;2023-05-28T14:55:06;10.50;;;4.60;;
42904;SDS011;28550;51.228;4.528;2023-05-28T14:57:33;12.27;;;5.47;;
42904;SDS011;28550;51.228;4.528;2023-05-28T15:00:02;12.52;;;5.22;;
42904;SDS011;28550;51.228;4.528;2023-05-28T15:02:32;11.52;;;5.53;;
42904;SDS011;28550;51.228;4.528;2023-05-28T15:04:59;9.13;;;5.25;;